createdAt,value
2018-09-19T00:00:14.722Z,64.72
2018-09-19T00:01:24.598Z,64.92
2018-09-19T00:02:34.489Z,64.43
2018-09-19T00:03:44.346Z,64.15
2018-09-19T00:04:54.456Z,64.34
2018-09-19T00:06:04.051Z,63.48
2018-09-19T00:07:13.360Z,63.38
2018-09-19T00:08:23.210Z,63.19
2018-09-19T00:09:33.332Z,63.48
2018-09-19T00:10:43.179Z,63
2018-09-19T00:11:53.023Z,61.66
2018-09-19T00:13:02.864Z,61.08
2018-09-19T00:14:12.997Z,60.76
2018-09-19T00:15:23.127Z,60.5
2018-09-19T00:16:33.249Z,60.99
2018-09-19T00:17:43.374Z,61.15
2018-09-19T00:18:53.224Z,61.56
2018-09-19T00:20:03.413Z,61.15
2018-09-19T00:21:13.731Z,60.76
2018-09-19T00:22:23.643Z,61.43
2018-09-19T00:23:33.841Z,61.18
2018-09-19T00:24:43.972Z,60.96
2018-09-19T00:25:53.281Z,61.18
2018-09-19T00:27:03.134Z,59.33
2018-09-19T00:28:13.248Z,58.46
2018-09-19T00:29:23.099Z,58.75
2018-09-19T00:30:33.179Z,59.13
2018-09-19T00:31:42.751Z,58.65
2018-09-19T00:32:52.874Z,58.84
2018-09-19T00:34:02.996Z,58.17
2018-09-19T00:35:12.587Z,57.89
2018-09-19T00:36:22.448Z,58.65
2018-09-19T00:37:32.583Z,58.56
2018-09-19T00:38:42.430Z,58.17
2018-09-19T00:39:52.534Z,58.56
2018-09-19T00:41:02.387Z,58.17
2018-09-19T00:42:12.519Z,59.33
2018-09-19T00:43:22.094Z,58.27
2018-09-19T00:44:31.961Z,58.84
2018-09-19T00:45:42.122Z,57.98
2018-09-19T00:46:51.996Z,58.56
2018-09-19T00:48:01.631Z,58.27
2018-09-19T00:49:11.757Z,58.84
2018-09-19T00:50:21.388Z,58.56
2018-09-19T00:51:31.276Z,57.6
2018-09-19T00:52:41.401Z,57.98
2018-09-19T00:53:51.578Z,58.27
2018-09-19T00:55:01.166Z,58.08
2018-09-19T00:56:11.291Z,58.27
2018-09-19T00:57:21.144Z,57.7
2018-09-19T00:58:31.292Z,57.89
2018-09-19T00:59:40.878Z,57.41
2018-09-19T01:00:51.001Z,56.83
2018-09-19T01:02:01.167Z,57.03
2018-09-19T01:03:11.287Z,56.83
2018-09-19T01:04:21.143Z,57.03
2018-09-19T01:05:31.370Z,57.5
2018-09-19T01:06:41.525Z,56.64
2018-09-19T01:07:51.419Z,57.31
2018-09-19T01:09:01.262Z,56.81
2018-09-19T01:10:11.108Z,56.74
2018-09-19T01:11:20.963Z,56.83
2018-09-19T01:12:30.804Z,57.12
2018-09-19T01:13:40.384Z,57.48
2018-09-19T01:14:50.530Z,57.03
2018-09-19T01:16:00.109Z,57.21
2018-09-19T01:17:09.992Z,56.81
2018-09-19T01:18:20.111Z,57.19
2018-09-19T01:19:30.044Z,55.46
2018-09-19T01:20:39.887Z,55.46
2018-09-19T01:21:49.742Z,55.36
2018-09-19T01:22:59.867Z,55.94
2018-09-19T01:24:09.990Z,55.36
2018-09-19T01:25:19.844Z,54.22
2018-09-19T01:26:29.414Z,52.78
2018-09-19T01:27:39.532Z,52.01
2018-09-19T01:28:49.656Z,52.4
2018-09-19T01:29:59.271Z,53.07
2018-09-19T01:31:09.227Z,52.78
2018-09-19T01:32:19.071Z,52.87
2018-09-19T01:33:28.379Z,53.64
2018-09-19T01:34:37.994Z,53.74
2018-09-19T01:35:48.361Z,52.5
2018-09-19T01:36:57.932Z,52.78
2018-09-19T01:38:07.772Z,51.51
2018-09-19T01:39:17.617Z,51.03
2018-09-19T01:40:27.477Z,50.74
2018-09-19T01:41:37.347Z,50.1
2018-09-19T01:42:47.532Z,49.88
2018-09-19T01:43:57.652Z,50.46
2018-09-19T01:45:07.509Z,50.56
2018-09-19T01:46:16.811Z,50.26
2018-09-19T01:47:26.662Z,51.13
2018-09-19T01:48:35.965Z,51.32
2018-09-19T01:49:45.546Z,51.42
2018-09-19T01:50:55.391Z,51.03
2018-09-19T01:52:05.576Z,50.93
2018-09-19T01:53:15.460Z,51.22
2018-09-19T01:54:25.326Z,50.84
2018-09-19T01:55:35.180Z,51.22
2018-09-19T01:56:44.517Z,51.13
2018-09-19T01:57:54.095Z,51.13
2018-09-19T01:59:03.957Z,51.22
2018-09-19T02:00:13.857Z,52.09
2018-09-19T02:01:23.711Z,51.22
2018-09-19T02:02:33.553Z,51.32
2018-09-19T02:03:43.455Z,51.13
2018-09-19T02:04:53.592Z,50.65
2018-09-19T02:06:03.168Z,50.07
2018-09-19T02:07:13.292Z,49.4
2018-09-19T02:08:22.636Z,49.4
2018-09-19T02:09:32.771Z,49.69
2018-09-19T02:10:42.624Z,49.02
2018-09-19T02:11:52.563Z,48.64
2018-09-19T02:13:02.690Z,47.87
2018-09-19T02:14:12.535Z,48.16
2018-09-19T02:15:22.373Z,48.07
2018-09-19T02:16:32.564Z,47.78
2018-09-19T02:17:42.686Z,47.78
2018-09-19T02:18:52.314Z,47.97
2018-09-19T02:20:02.158Z,47.78
2018-09-19T02:21:11.472Z,46.53
2018-09-19T02:22:21.591Z,45.57
2018-09-19T02:23:31.433Z,45.38
2018-09-19T02:24:41.826Z,44.62
2018-09-19T02:25:51.963Z,44.04
2018-09-19T02:27:01.807Z,44.33
2018-09-19T02:28:11.928Z,42.99
2018-09-19T02:29:22.096Z,42.41
2018-09-19T02:30:32.257Z,41.84
2018-09-19T02:31:42.407Z,42.03
2018-09-19T02:32:52.323Z,41.65
2018-09-19T02:34:02.173Z,41.74
2018-09-19T02:35:12.376Z,41.46
2018-09-19T02:36:22.609Z,40.69
2018-09-19T02:37:32.438Z,40.69
2018-09-19T02:38:42.578Z,40.59
2018-09-19T02:39:52.697Z,40.21
2018-09-19T02:41:02.292Z,40.31
2018-09-19T02:42:12.152Z,40.31
2018-09-19T02:43:22.301Z,40.31
2018-09-19T02:44:32.165Z,40.02
2018-09-19T02:45:42.300Z,40.31
2018-09-19T02:46:52.165Z,40.41
2018-09-19T02:48:01.747Z,40.31
2018-09-19T02:49:11.887Z,40.41
2018-09-19T02:50:22.077Z,39.92
2018-09-19T02:51:31.957Z,40.41
2018-09-19T02:52:42.099Z,40.31
2018-09-19T02:53:51.718Z,40.88
2018-09-19T02:55:01.854Z,40.69
2018-09-19T02:56:11.724Z,40.21
2018-09-19T02:57:21.325Z,40.31
2018-09-19T02:58:31.183Z,40.31
2018-09-19T02:59:41.354Z,40.21
2018-09-19T03:00:51.489Z,40.41
2018-09-19T03:02:01.426Z,40.5
2018-09-19T03:03:10.457Z,40.31
2018-09-19T03:04:20.358Z,40.41
2018-09-19T03:05:30.209Z,40.41
2018-09-19T03:06:40.332Z,40.02
2018-09-19T03:07:50.193Z,40.41
2018-09-19T03:09:00.365Z,40.12
2018-09-19T03:10:10.226Z,40.12
2018-09-19T03:11:20.091Z,40.31
2018-09-19T03:12:30.219Z,40.21
2018-09-19T03:13:40.082Z,40.02
2018-09-19T03:14:49.670Z,40.5
2018-09-19T03:15:59.803Z,40.41
2018-09-19T03:17:09.499Z,40.31
2018-09-19T03:18:20.084Z,40.41
2018-09-19T03:19:29.942Z,40.31
2018-09-19T03:20:39.789Z,40.41
2018-09-19T03:21:49.628Z,40.69
2018-09-19T03:22:59.503Z,40.78
2018-09-19T03:24:09.370Z,40.88
2018-09-19T03:25:19.540Z,40.78
2018-09-19T03:26:29.670Z,41.65
2018-09-19T03:27:39.009Z,40.98
2018-09-19T03:28:49.128Z,41.46
2018-09-19T03:29:58.978Z,41.74
2018-09-19T03:31:08.566Z,41.55
2018-09-19T03:32:18.739Z,41.17
2018-09-19T03:33:28.069Z,40.88
2018-09-19T03:34:38.454Z,41.74
2018-09-19T03:35:48.297Z,41.55
2018-09-19T03:36:57.873Z,41.55
2018-09-19T03:38:08.054Z,41.84
2018-09-19T03:39:18.199Z,41.46
2018-09-19T03:40:28.087Z,41.55
2018-09-19T03:41:38.267Z,41.84
2018-09-19T03:42:47.879Z,41.84
2018-09-19T03:43:57.463Z,41.65
2018-09-19T03:45:07.038Z,41.65
2018-09-19T03:46:17.181Z,41.74
2018-09-19T03:47:26.777Z,41.84
2018-09-19T03:48:37.158Z,42.32
2018-09-19T03:49:47.020Z,42.03
2018-09-19T03:50:57.162Z,42.03
2018-09-19T03:52:06.733Z,42.22
2018-09-19T03:53:16.310Z,42.6
2018-09-19T03:54:25.886Z,42.8
2018-09-19T03:55:35.310Z,42.7
2018-09-19T03:56:45.220Z,42.8
2018-09-19T03:57:55.400Z,42.8
2018-09-19T03:59:05.690Z,42.8
2018-09-19T04:00:15.265Z,43.18
2018-09-19T04:01:25.396Z,42.8
2018-09-19T04:02:35.252Z,43.08
2018-09-19T04:03:45.458Z,43.18
2018-09-19T04:04:55.042Z,43.18
2018-09-19T04:06:04.647Z,43.56
2018-09-19T04:07:14.221Z,43.56
2018-09-19T04:08:24.374Z,43.27
2018-09-19T04:09:34.240Z,44.33
2018-09-19T04:10:43.813Z,43.76
2018-09-19T04:11:53.936Z,44.04
2018-09-19T04:13:03.554Z,43.85
2018-09-19T04:14:13.462Z,44.13
2018-09-19T04:15:23.589Z,44.04
2018-09-19T04:16:33.709Z,44.13
2018-09-19T04:17:43.811Z,44.04
2018-09-19T04:18:53.975Z,43.85
2018-09-19T04:20:03.855Z,43.95
2018-09-19T04:21:14.005Z,43.85
2018-09-19T04:22:23.599Z,44.23
2018-09-19T04:23:33.448Z,43.56
2018-09-19T04:24:43.578Z,43.37
2018-09-19T04:25:53.691Z,43.47
2018-09-19T04:27:03.530Z,43.66
2018-09-19T04:28:13.682Z,44.04
2018-09-19T04:29:23.853Z,43.63
2018-09-19T04:30:33.910Z,43.76
2018-09-19T04:31:43.994Z,43.16
2018-09-19T04:32:54.123Z,44.04
2018-09-19T04:34:04.268Z,43.95
2018-09-19T04:35:13.842Z,44.33
2018-09-19T04:36:23.690Z,44.02
2018-09-19T04:37:33.603Z,44.02
2018-09-19T04:38:43.752Z,44.02
2018-09-19T04:39:53.600Z,43.83
2018-09-19T04:41:03.178Z,43.73
2018-09-19T04:42:12.759Z,44.02
2018-09-19T04:43:22.587Z,43.83
2018-09-19T04:44:32.447Z,43.35
2018-09-19T04:45:42.381Z,43.63
2018-09-19T04:46:52.200Z,43.63
2018-09-19T04:48:02.047Z,43.54
2018-09-19T04:49:12.183Z,43.44
2018-09-19T04:50:22.315Z,43.54
2018-09-19T04:51:32.833Z,43.06
2018-09-19T04:52:42.483Z,42.68
2018-09-19T04:53:52.377Z,43.06
2018-09-19T04:55:01.946Z,43.16
2018-09-19T04:56:12.082Z,43.06
2018-09-19T04:57:21.993Z,42.97
2018-09-19T04:58:31.857Z,42.87
2018-09-19T04:59:41.987Z,42.49
2018-09-19T05:00:51.562Z,42.87
2018-09-19T05:02:01.142Z,43.06
2018-09-19T05:03:10.998Z,43.06
2018-09-19T05:04:20.602Z,43.26
2018-09-19T05:05:29.945Z,42.97
2018-09-19T05:06:39.897Z,42.77
2018-09-19T05:07:49.731Z,42.58
2018-09-19T05:08:59.325Z,42.58
2018-09-19T05:10:09.472Z,42.68
2018-09-19T05:11:19.687Z,42.3
2018-09-19T05:12:30.150Z,42.3
2018-09-19T05:13:39.725Z,41.91
2018-09-19T05:14:49.062Z,42.2
2018-09-19T05:15:58.910Z,42.3
2018-09-19T05:17:08.758Z,41.91
2018-09-19T05:18:18.100Z,42.01
2018-09-19T05:19:27.717Z,42.01
2018-09-19T05:20:37.314Z,42.01
2018-09-19T05:21:47.439Z,42.2
2018-09-19T05:22:57.013Z,42.11
2018-09-19T05:24:06.593Z,42.3
2018-09-19T05:25:16.442Z,42.58
2018-09-19T05:26:26.311Z,42.11
2018-09-19T05:27:36.206Z,42.01
2018-09-19T05:28:46.320Z,41.91
2018-09-19T05:29:56.169Z,42.3
2018-09-19T05:31:06.028Z,42.49
2018-09-19T05:32:15.874Z,41.82
2018-09-19T05:33:25.997Z,41.91
2018-09-19T05:34:35.571Z,41.63
2018-09-19T05:35:45.414Z,41.82
2018-09-19T05:36:54.988Z,41.72
2018-09-19T05:38:04.576Z,41.53
2018-09-19T05:39:14.697Z,41.24
2018-09-19T05:40:24.816Z,41.24
2018-09-19T05:41:34.670Z,41.24
2018-09-19T05:42:43.984Z,41.44
2018-09-19T05:43:53.820Z,41.24
2018-09-19T05:45:03.668Z,41.24
2018-09-19T05:46:13.870Z,41.44
2018-09-19T05:47:24.236Z,41.15
2018-09-19T05:48:34.590Z,41.44
2018-09-19T05:49:44.468Z,41.44
2018-09-19T05:50:54.599Z,41.44
2018-09-19T05:52:04.176Z,41.44
2018-09-19T05:53:14.023Z,40.95
2018-09-19T05:54:23.954Z,40.95
2018-09-19T05:55:34.015Z,41.72
2018-09-19T05:56:44.145Z,41.24
2018-09-19T05:57:54.273Z,41.63
2018-09-19T05:59:03.633Z,41.24
2018-09-19T06:00:13.224Z,41.34
2018-09-19T06:01:23.429Z,41.72
2018-09-19T06:02:33.348Z,41.15
2018-09-19T06:03:43.483Z,41.55
2018-09-19T06:04:53.705Z,41.53
2018-09-19T06:06:04.219Z,41.44
2018-09-19T06:07:14.374Z,41.55
2018-09-19T06:08:24.496Z,41.53
2018-09-19T06:09:34.340Z,41.72
2018-09-19T06:10:44.186Z,41.55
2018-09-19T06:11:54.320Z,41.44
2018-09-19T06:13:04.325Z,41.84
2018-09-19T06:14:14.481Z,42.03
2018-09-19T06:15:24.348Z,41.84
2018-09-19T06:16:34.959Z,41.94
2018-09-19T06:17:44.815Z,41.84
2018-09-19T06:18:54.675Z,41.84
2018-09-19T06:20:04.793Z,42.41
2018-09-19T06:21:14.640Z,41.84
2018-09-19T06:22:24.527Z,41.84
2018-09-19T06:23:34.393Z,41.94
2018-09-19T06:24:44.241Z,42.03
2018-09-19T06:25:54.091Z,42.32
2018-09-19T06:27:03.817Z,42.03
2018-09-19T06:28:13.684Z,42.03
2018-09-19T06:29:23.798Z,42.41
2018-09-19T06:30:33.645Z,42.32
2018-09-19T06:31:43.784Z,42.13
2018-09-19T06:32:53.818Z,42.51
2018-09-19T06:34:04.606Z,41.84
2018-09-19T06:35:14.730Z,42.32
2018-09-19T06:36:24.580Z,42.32
2018-09-19T06:37:34.701Z,42.6
2018-09-19T06:38:44.605Z,42.32
2018-09-19T06:39:54.543Z,42.51
2018-09-19T06:41:05.265Z,42.22
2018-09-19T06:42:14.708Z,41.84
2018-09-19T06:43:24.283Z,42.7
2018-09-19T06:44:34.125Z,42.6
2018-09-19T06:45:44.172Z,43.27
2018-09-19T06:46:54.362Z,43.01
2018-09-19T06:48:04.454Z,42.82
2018-09-19T06:49:14.058Z,43.3
2018-09-19T06:50:24.194Z,44.16
2018-09-19T06:51:33.776Z,44.16
2018-09-19T06:52:43.351Z,44.83
2018-09-19T06:53:53.491Z,45.31
2018-09-19T06:55:03.655Z,45.89
2018-09-19T06:56:13.781Z,45.89
2018-09-19T06:57:23.627Z,46.08
2018-09-19T06:58:33.219Z,46.08
2018-09-19T06:59:42.925Z,46.75
2018-09-19T07:00:53.425Z,46.65
2018-09-19T07:02:03.574Z,46.67
2018-09-19T07:03:13.207Z,47.73
2018-09-19T07:04:23.080Z,48.11
2018-09-19T07:05:32.938Z,48.21
2018-09-19T07:06:42.820Z,48.78
2018-09-19T07:07:52.698Z,49.26
2018-09-19T07:09:02.283Z,49.36
2018-09-19T07:10:11.862Z,49.07
2018-09-19T07:11:21.984Z,49.45
2018-09-19T07:12:32.105Z,49.36
2018-09-19T07:13:41.946Z,49.07
2018-09-19T07:14:52.350Z,49.26
2018-09-19T07:16:02.192Z,49.65
2018-09-19T07:17:12.305Z,50.03
2018-09-19T07:18:22.163Z,49.93
2018-09-19T07:19:31.736Z,50.22
2018-09-19T07:20:41.617Z,50.34
2018-09-19T07:21:51.456Z,51.01
2018-09-19T07:23:01.036Z,51.68
2018-09-19T07:24:10.918Z,52.07
2018-09-19T07:25:20.381Z,52.74
2018-09-19T07:26:30.398Z,52.64
2018-09-19T07:27:39.730Z,53.6
2018-09-19T07:28:49.846Z,53.7
2018-09-19T07:29:59.444Z,53.99
2018-09-19T07:31:09.675Z,54.17
2018-09-19T07:32:19.538Z,54.56
2018-09-19T07:33:28.840Z,54.56
2018-09-19T07:34:38.767Z,54.75
2018-09-19T07:35:48.961Z,54.21
2018-09-19T07:36:59.076Z,54.21
2018-09-19T07:38:08.917Z,54.88
2018-09-19T07:39:18.577Z,55.07
2018-09-19T07:40:28.270Z,56.12
2018-09-19T07:41:38.215Z,56.89
2018-09-19T07:42:48.068Z,56.89
2018-09-19T07:43:57.922Z,57.08
2018-09-19T07:45:07.810Z,57.85
2018-09-19T07:46:17.384Z,58.45
2018-09-19T07:47:27.137Z,58.17
2018-09-19T07:48:36.716Z,58.45
2018-09-19T07:49:46.851Z,59.03
2018-09-19T07:50:56.442Z,59.32
2018-09-19T07:52:06.339Z,58.84
2018-09-19T07:53:15.922Z,60.85
2018-09-19T07:54:25.813Z,61.72
2018-09-19T07:55:36.169Z,61.91
2018-09-19T07:56:46.063Z,62.29
2018-09-19T07:57:56.056Z,62.29
2018-09-19T07:59:06.189Z,62.96
2018-09-19T08:00:16.333Z,63.76
2018-09-19T08:01:25.926Z,64.43
2018-09-19T08:02:36.065Z,65.2
2018-09-19T08:03:46.197Z,65.01
2018-09-19T08:04:55.780Z,65.2
2018-09-19T08:06:05.667Z,65.49
2018-09-19T08:07:15.525Z,65.59
2018-09-19T08:08:25.102Z,65.4
2018-09-19T08:09:34.953Z,65.4
2018-09-19T08:10:44.805Z,65.69
2018-09-19T08:11:54.941Z,65.97
2018-09-19T08:13:04.541Z,66.36
2018-09-19T08:14:14.405Z,67.35
2018-09-19T08:15:24.566Z,67.25
2018-09-19T08:16:34.426Z,67.41
2018-09-19T08:17:44.330Z,67.74
2018-09-19T08:18:54.518Z,67.45
2018-09-19T08:20:04.390Z,68.02
2018-09-19T08:21:14.243Z,67.64
2018-09-19T08:22:24.139Z,67.74
2018-09-19T08:23:34.097Z,68.21
2018-09-19T08:24:44.290Z,68.7
2018-09-19T08:25:54.407Z,69.46
2018-09-19T08:27:03.991Z,69.46
2018-09-19T08:28:14.134Z,69.37
2018-09-19T08:29:23.979Z,69.66
2018-09-19T08:30:33.843Z,69.69
2018-09-19T08:31:43.960Z,71.71
2018-09-19T08:32:53.825Z,71.52
2018-09-19T08:34:03.952Z,71.33
2018-09-19T08:35:14.071Z,71.42
2018-09-19T08:36:24.250Z,71.91
2018-09-19T08:37:33.835Z,72.29
2018-09-19T08:38:43.680Z,72.13
2018-09-19T08:39:53.807Z,72.71
2018-09-19T08:41:03.695Z,73.09
2018-09-19T08:42:13.817Z,72.9
2018-09-19T08:43:23.681Z,72.71
2018-09-19T08:44:33.547Z,73.09
2018-09-19T08:45:42.860Z,72.9
2018-09-19T08:46:52.717Z,74.25
2018-09-19T08:48:02.305Z,74.29
2018-09-19T08:49:11.645Z,74.19
2018-09-19T08:50:21.500Z,75.4
2018-09-19T08:51:31.492Z,75.24
2018-09-19T08:52:41.362Z,75.82
2018-09-19T08:53:50.946Z,76.78
2018-09-19T08:55:00.791Z,76.69
2018-09-19T08:56:10.647Z,76.88
2018-09-19T08:57:20.540Z,76.98
2018-09-19T08:58:30.682Z,76.78
2018-09-19T08:59:40.909Z,77.26
2018-09-19T09:00:50.765Z,77.26
2018-09-19T09:02:00.608Z,77.26
2018-09-19T09:03:10.746Z,77.46
2018-09-19T09:04:20.939Z,78.13
2018-09-19T09:05:31.236Z,77.94
2018-09-19T09:06:41.403Z,78.65
2018-09-19T09:07:51.532Z,78.75
2018-09-19T09:09:01.738Z,78.75
2018-09-19T09:10:11.336Z,79.52
2018-09-19T09:11:21.241Z,78.85
2018-09-19T09:12:30.580Z,79.33
2018-09-19T09:13:40.975Z,79.43
2018-09-19T09:14:51.124Z,79.81
2018-09-19T09:16:00.984Z,79.66
2018-09-19T09:17:10.890Z,80.43
2018-09-19T09:18:21.030Z,80.14
2018-09-19T09:19:30.337Z,80.43
2018-09-19T09:20:39.927Z,80.43
2018-09-19T09:21:49.297Z,80.37
2018-09-19T09:22:59.147Z,80.56
2018-09-19T09:24:08.993Z,81.81
2018-09-19T09:25:18.587Z,81.62
2018-09-19T09:26:28.715Z,81.14
2018-09-19T09:27:38.648Z,81.33
2018-09-19T09:28:48.521Z,81.52
2018-09-19T09:29:58.663Z,81.24
2018-09-19T09:31:08.340Z,81.72
2018-09-19T09:32:18.516Z,81.43
2018-09-19T09:33:27.835Z,81.52
2018-09-19T09:34:37.688Z,81.62
2018-09-19T09:35:46.997Z,81.72
2018-09-19T09:36:56.647Z,81.33
2018-09-19T09:38:05.912Z,81.47
2018-09-19T09:39:16.054Z,81.47
2018-09-19T09:40:26.114Z,81.85
2018-09-19T09:41:36.322Z,81.76
2018-09-19T09:42:46.179Z,82.14
2018-09-19T09:43:56.133Z,81.52
2018-09-19T09:45:05.996Z,81.85
2018-09-19T09:46:15.578Z,81.57
2018-09-19T09:47:25.756Z,81.66
2018-09-19T09:48:35.334Z,81.27
2018-09-19T09:49:44.918Z,81.76
2018-09-19T09:50:55.040Z,82.34
2018-09-19T09:52:04.921Z,82.53
2018-09-19T09:53:15.266Z,82.43
2018-09-19T09:54:25.371Z,81.95
2018-09-19T09:55:35.499Z,82.24
2018-09-19T09:56:45.645Z,82.14
2018-09-19T09:57:56.049Z,82.09
2018-09-19T09:59:05.631Z,82.18
2018-09-19T10:00:15.752Z,81.8
2018-09-19T10:01:25.879Z,81.99
2018-09-19T10:02:35.454Z,82.48
2018-09-19T10:03:45.352Z,82.42
2018-09-19T10:04:55.198Z,82.13
2018-09-19T10:06:05.323Z,82.51
2018-09-19T10:07:15.172Z,82.42
2018-09-19T10:08:25.031Z,82.61
2018-09-19T10:09:34.337Z,82.71
2018-09-19T10:10:44.183Z,82.75
2018-09-19T10:11:54.314Z,83.29
2018-09-19T10:13:04.431Z,83.58
2018-09-19T10:14:14.012Z,83.09
2018-09-19T10:15:23.861Z,83.33
2018-09-19T10:16:33.459Z,82.94
2018-09-19T10:17:43.607Z,83.42
2018-09-19T10:18:53.736Z,83.14
2018-09-19T10:20:03.616Z,83.33
2018-09-19T10:21:13.731Z,83.52
2018-09-19T10:22:23.591Z,83.04
2018-09-19T10:23:33.702Z,82.94
2018-09-19T10:24:43.555Z,83.62
2018-09-19T10:25:53.402Z,83.14
2018-09-19T10:27:02.981Z,83.14
2018-09-19T10:28:12.838Z,83.08
2018-09-19T10:29:22.686Z,83.04
2018-09-19T10:30:32.359Z,83.75
2018-09-19T10:31:42.211Z,83.37
2018-09-19T10:32:52.060Z,84.05
2018-09-19T10:34:01.369Z,83.37
2018-09-19T10:35:10.961Z,83.75
2018-09-19T10:36:21.288Z,83.85
2018-09-19T10:37:31.142Z,83.37
2018-09-19T10:38:40.735Z,82.89
2018-09-19T10:39:50.578Z,82.89
2018-09-19T10:41:00.696Z,83.37
2018-09-19T10:42:10.573Z,83.56
2018-09-19T10:43:20.688Z,83.22
2018-09-19T10:44:30.596Z,82.83
2018-09-19T10:45:40.458Z,83.12
2018-09-19T10:46:50.311Z,83.36
2018-09-19T10:48:00.428Z,83.26
2018-09-19T10:49:10.011Z,83.26
2018-09-19T10:50:20.180Z,83.36
2018-09-19T10:51:30.262Z,82.48
2018-09-19T10:52:40.388Z,82.87
2018-09-19T10:53:50.233Z,83.26
2018-09-19T10:55:00.349Z,83.06
2018-09-19T10:56:09.937Z,82.48
2018-09-19T10:57:19.798Z,82.97
2018-09-19T10:58:29.380Z,83.26
2018-09-19T10:59:38.959Z,82.62
2018-09-19T11:00:49.081Z,82.91
2018-09-19T11:01:58.951Z,83.3
2018-09-19T11:03:08.526Z,82.62
2018-09-19T11:04:18.648Z,82.43
2018-09-19T11:05:28.228Z,82.43
2018-09-19T11:06:38.348Z,83.4
2018-09-19T11:07:48.465Z,83.4
2018-09-19T11:08:58.313Z,83.01
2018-09-19T11:10:07.670Z,82.43
2018-09-19T11:11:17.815Z,83.01
2018-09-19T11:12:27.697Z,83.3
2018-09-19T11:13:37.811Z,83.11
2018-09-19T11:14:47.656Z,82.81
2018-09-19T11:15:57.502Z,82.91
2018-09-19T11:17:07.774Z,83.3
2018-09-19T11:18:17.743Z,82.66
2018-09-19T11:19:27.321Z,82.47
2018-09-19T11:20:36.899Z,82.66
2018-09-19T11:21:46.751Z,82.28
2018-09-19T11:22:56.894Z,82.08
2018-09-19T11:24:06.471Z,82.76
2018-09-19T11:25:16.082Z,82.76
2018-09-19T11:26:26.187Z,81.98
2018-09-19T11:27:36.232Z,82.18
2018-09-19T11:28:46.083Z,81.6
2018-09-19T11:29:56.202Z,82.28
2018-09-19T11:31:06.049Z,82.08
2018-09-19T11:32:15.891Z,81.12
2018-09-19T11:33:25.195Z,81.5
2018-09-19T11:34:35.368Z,82.18
2018-09-19T11:35:45.486Z,82.18
2018-09-19T11:36:55.328Z,82.37
2018-09-19T11:38:05.406Z,81.73
2018-09-19T11:39:15.525Z,81.6
2018-09-19T11:40:24.836Z,81.35
2018-09-19T11:41:34.410Z,81.21
2018-09-19T11:42:44.550Z,81.5
2018-09-19T11:43:54.122Z,81.25
2018-09-19T11:45:03.973Z,81.25
2018-09-19T11:46:13.828Z,81.05
2018-09-19T11:47:23.943Z,81.64
2018-09-19T11:48:33.869Z,81.64
2018-09-19T11:49:43.547Z,81.45
2018-09-19T11:50:53.723Z,81.15
2018-09-19T11:52:03.843Z,81.35
2018-09-19T11:53:13.152Z,80.57
2018-09-19T11:54:23.016Z,80.42
2018-09-19T11:55:33.137Z,80.52
2018-09-19T11:56:42.728Z,81.1
2018-09-19T11:57:52.614Z,81.39
2018-09-19T11:59:02.555Z,81.29
2018-09-19T12:00:12.720Z,80.42
2018-09-19T12:01:22.594Z,79.93
2018-09-19T12:02:32.448Z,79.97
2018-09-19T12:03:42.037Z,80.26
2018-09-19T12:04:52.159Z,79.49
2018-09-19T12:06:02.005Z,79.49
2018-09-19T12:07:11.638Z,79.49
2018-09-19T12:08:21.467Z,79.68
2018-09-19T12:09:30.541Z,79.82
2018-09-19T12:10:40.404Z,78.94
2018-09-19T12:11:49.726Z,79.14
2018-09-19T12:12:59.577Z,79.04
2018-09-19T12:14:09.530Z,78.36
2018-09-19T12:15:19.120Z,77.98
2018-09-19T12:16:28.698Z,78.27
2018-09-19T12:17:38.543Z,78.85
2018-09-19T12:18:48.395Z,79.04
2018-09-19T12:19:58.509Z,79.14
2018-09-19T12:21:08.634Z,79.04
2018-09-19T12:22:18.216Z,79.2
2018-09-19T12:23:28.062Z,78.75
2018-09-19T12:24:37.649Z,79.04
2018-09-19T12:25:47.379Z,79.14
2018-09-19T12:26:57.231Z,80.11
2018-09-19T12:28:06.541Z,79.72
2018-09-19T12:29:16.125Z,78.85
2018-09-19T12:30:25.467Z,78.89
2018-09-19T12:31:35.060Z,78.99
2018-09-19T12:32:45.177Z,78.11
2018-09-19T12:33:55.264Z,78.5
2018-09-19T12:35:05.152Z,78.99
2018-09-19T12:36:14.732Z,78.4
2018-09-19T12:37:24.636Z,78.21
2018-09-19T12:38:34.486Z,78.11
2018-09-19T12:39:44.452Z,77.92
2018-09-19T12:40:54.599Z,77.86
2018-09-19T12:42:04.487Z,77.82
2018-09-19T12:43:14.388Z,78.31
2018-09-19T12:44:24.233Z,78.4
2018-09-19T12:45:33.541Z,78.5
2018-09-19T12:46:43.698Z,78.5
2018-09-19T12:47:53.819Z,78.59
2018-09-19T12:49:02.980Z,78.85
2018-09-19T12:50:13.066Z,79.37
2018-09-19T12:51:22.648Z,79.57
2018-09-19T12:52:32.276Z,78.66
2018-09-19T12:53:41.851Z,79.53
2018-09-19T12:54:51.741Z,79.04
2018-09-19T12:56:01.326Z,79.14
2018-09-19T12:57:11.193Z,79.37
2018-09-19T12:58:21.047Z,79.47
2018-09-19T12:59:31.182Z,79.08
2018-09-19T13:00:41.029Z,78.79
2018-09-19T13:01:50.641Z,78.89
2018-09-19T13:03:00.492Z,78.99
2018-09-19T13:04:10.400Z,79.18
2018-09-19T13:05:20.253Z,79.57
2018-09-19T13:06:30.105Z,78.99
2018-09-19T13:07:39.682Z,79.37
2018-09-19T13:08:49.962Z,78.89
2018-09-19T13:09:59.572Z,78.69
2018-09-19T13:11:09.199Z,78.89
2018-09-19T13:12:19.098Z,78.79
2018-09-19T13:13:28.683Z,79.47
2018-09-19T13:14:38.263Z,79.18
2018-09-19T13:15:48.384Z,79.28
2018-09-19T13:16:58.233Z,79.08
2018-09-19T13:18:08.363Z,79.57
2018-09-19T13:19:18.248Z,79.47
2018-09-19T13:20:28.396Z,78.99
2018-09-19T13:21:38.272Z,79.08
2018-09-19T13:22:47.880Z,78.5
2018-09-19T13:23:57.749Z,78.5
2018-09-19T13:25:07.352Z,79.22
2018-09-19T13:26:16.932Z,79.08
2018-09-19T13:27:26.925Z,79.76
2018-09-19T13:28:36.931Z,79.02
2018-09-19T13:29:46.836Z,80.09
2018-09-19T13:30:56.683Z,78.83
2018-09-19T13:32:06.260Z,78.54
2018-09-19T13:33:16.385Z,78.19
2018-09-19T13:34:25.704Z,77.99
2018-09-19T13:35:35.588Z,77.41
2018-09-19T13:36:45.440Z,77.02
2018-09-19T13:37:55.491Z,77.12
2018-09-19T13:39:05.334Z,77.12
2018-09-19T13:40:14.642Z,77.12
2018-09-19T13:41:24.500Z,77.41
2018-09-19T13:42:34.613Z,77.12
2018-09-19T13:43:44.738Z,77.02
2018-09-19T13:44:54.588Z,76.73
2018-09-19T13:46:04.433Z,76.83
2018-09-19T13:47:14.309Z,75.41
2018-09-19T13:48:23.889Z,74.92
2018-09-19T13:49:33.739Z,75.31
2018-09-19T13:50:43.585Z,75.21
2018-09-19T13:51:52.895Z,75.02
2018-09-19T13:53:01.936Z,75.7
2018-09-19T13:54:11.512Z,75.18
2018-09-19T13:55:21.134Z,75.57
2018-09-19T13:56:30.986Z,75.67
2018-09-19T13:57:40.906Z,76.25
2018-09-19T13:58:50.841Z,75.85
2018-09-19T14:00:01.117Z,75.57
2018-09-19T14:01:11.237Z,76.48
2018-09-19T14:02:20.817Z,76.18
2018-09-19T14:03:30.435Z,75.21
2018-09-19T14:04:40.564Z,75.6
2018-09-19T14:05:50.142Z,73.99
2018-09-19T14:07:00.039Z,73.99
2018-09-19T14:08:10.169Z,73.93
2018-09-19T14:09:20.022Z,74.12
2018-09-19T14:10:29.874Z,74.12
2018-09-19T14:11:40.146Z,73.54
2018-09-19T14:12:50.579Z,72.76
2018-09-19T14:14:00.164Z,72.96
2018-09-19T14:15:09.752Z,72.86
2018-09-19T14:16:19.886Z,73.05
2018-09-19T14:17:29.524Z,72.5
2018-09-19T14:18:39.647Z,72.6
2018-09-19T14:19:49.238Z,73.08
2018-09-19T14:20:59.095Z,73.08
2018-09-19T14:22:08.731Z,72.89
2018-09-19T14:23:18.859Z,73.18
2018-09-19T14:24:28.448Z,72.31
2018-09-19T14:25:38.028Z,71.23
2018-09-19T14:26:47.892Z,71.23
2018-09-19T14:27:57.817Z,72.21
2018-09-19T14:29:07.675Z,71.72
2018-09-19T14:30:17.028Z,72.11
2018-09-19T14:31:27.150Z,72.21
2018-09-19T14:32:37.287Z,72.08
2018-09-19T14:33:47.431Z,71.4
2018-09-19T14:34:57.013Z,71.98
2018-09-19T14:36:06.883Z,72.27
2018-09-19T14:37:16.740Z,72.27
2018-09-19T14:38:26.876Z,72.56
2018-09-19T14:39:36.778Z,72.43
2018-09-19T14:40:47.136Z,72.43
2018-09-19T14:41:57.255Z,72.72
2018-09-19T14:43:06.844Z,73.21
2018-09-19T14:44:16.425Z,73.02
2018-09-19T14:45:26.564Z,72.92
2018-09-19T14:46:36.681Z,73.02
2018-09-19T14:47:46.558Z,73.46
2018-09-19T14:48:56.567Z,73.85
2018-09-19T14:50:06.650Z,73.66
2018-09-19T14:51:16.548Z,73.46
2018-09-19T14:52:26.404Z,73.08
2018-09-19T14:53:35.986Z,72.98
2018-09-19T14:54:45.566Z,73.46
2018-09-19T14:55:55.451Z,72.98
2018-09-19T14:57:05.030Z,73.66
2018-09-19T14:58:14.348Z,73.66
2018-09-19T14:59:24.475Z,73.95
2018-09-19T15:00:33.783Z,73.95
2018-09-19T15:01:43.604Z,74.15